sensor_id;sensor_type;location;lat;lon;timestamp;temperature;humidity
38263;DHT22;24054;50.128;19.730;2023-04-28T00:00:02;21.20;61.70
38263;DHT22;24054;50.128;19.730;2023-04-28T00:02:30;21.30;64.00
38263;DHT22;24054;50.128;19.730;2023-04-28T00:04:56;21.20;61.40
38263;DHT22;24054;50.128;19.730;2023-04-28T00:07:23;21.20;63.80
38263;DHT22;24054;50.128;19.730;2023-04-28T00:09:50;21.20;64.10
38263;DHT22;24054;50.128;19.730;2023-04-28T00:12:19;21.20;64.10
38263;DHT22;24054;50.128;19.730;2023-04-28T00:19:40;21.10;64.00
38263;DHT22;24054;50.128;19.730;2023-04-28T00:22:06;21.10;64.20
38263;DHT22;24054;50.128;19.730;2023-04-28T00:24:33;21.10;63.90
38263;DHT22;24054;50.128;19.730;2023-04-28T00:27:00;21.10;63.90
38263;DHT22;24054;50.128;19.730;2023-04-28T00:31:56;21.00;63.60
38263;DHT22;24054;50.128;19.730;2023-04-28T00:34:23;21.10;63.70
38263;DHT22;24054;50.128;19.730;2023-04-28T00:36:50;21.10;63.90
38263;DHT22;24054;50.128;19.730;2023-04-28T00:41:43;21.00;63.70
38263;DHT22;24054;50.128;19.730;2023-04-28T00:49:05;21.10;63.80
38263;DHT22;24054;50.128;19.730;2023-04-28T00:51:32;21.10;63.80
38263;DHT22;24054;50.128;19.730;2023-04-28T00:58:55;21.00;63.70
38263;DHT22;24054;50.128;19.730;2023-04-28T01:01:22;21.00;63.40
38263;DHT22;24054;50.128;19.730;2023-04-28T01:03:48;21.00;63.60
38263;DHT22;24054;50.128;19.730;2023-04-28T01:06:16;20.90;63.70
38263;DHT22;24054;50.128;19.730;2023-04-28T01:08:46;21.00;63.30
38263;DHT22;24054;50.128;19.730;2023-04-28T01:11:13;20.90;60.70
38263;DHT22;24054;50.128;19.730;2023-04-28T01:13:40;21.00;63.50
38263;DHT22;24054;50.128;19.730;2023-04-28T01:16:06;21.00;63.20
38263;DHT22;24054;50.128;19.730;2023-04-28T01:18:33;20.90;62.00
38263;DHT22;24054;50.128;19.730;2023-04-28T01:21:00;20.90;63.60
38263;DHT22;24054;50.128;19.730;2023-04-28T01:23:30;21.00;63.30
38263;DHT22;24054;50.128;19.730;2023-04-28T01:25:58;20.90;63.50
38263;DHT22;24054;50.128;19.730;2023-04-28T01:28:25;20.90;63.60
38263;DHT22;24054;50.128;19.730;2023-04-28T01:30:52;20.90;63.30
38263;DHT22;24054;50.128;19.730;2023-04-28T01:33:20;20.90;63.50
38263;DHT22;24054;50.128;19.730;2023-04-28T01:38:14;20.90;63.20
38263;DHT22;24054;50.128;19.730;2023-04-28T01:43:09;20.90;63.40
38263;DHT22;24054;50.128;19.730;2023-04-28T01:45:36;20.80;63.30
38263;DHT22;24054;50.128;19.730;2023-04-28T01:48:03;20.80;63.50
38263;DHT22;24054;50.128;19.730;2023-04-28T01:50:30;20.90;63.60
38263;DHT22;24054;50.128;19.730;2023-04-28T01:52:56;20.80;60.60
38263;DHT22;24054;50.128;19.730;2023-04-28T01:55:23;20.80;63.50
38263;DHT22;24054;50.128;19.730;2023-04-28T01:57:50;20.80;63.60
38263;DHT22;24054;50.128;19.730;2023-04-28T02:00:18;20.80;63.40
38263;DHT22;24054;50.128;19.730;2023-04-28T02:02:45;20.90;63.20
38263;DHT22;24054;50.128;19.730;2023-04-28T02:05:12;20.80;63.60
38263;DHT22;24054;50.128;19.730;2023-04-28T02:07:38;20.80;63.20
38263;DHT22;24054;50.128;19.730;2023-04-28T02:14:59;20.80;63.40
38263;DHT22;24054;50.128;19.730;2023-04-28T02:17:29;20.70;63.40
38263;DHT22;24054;50.128;19.730;2023-04-28T02:19:56;20.80;63.50
38263;DHT22;24054;50.128;19.730;2023-04-28T02:22:23;20.80;61.70
38263;DHT22;24054;50.128;19.730;2023-04-28T02:24:50;20.70;63.20
38263;DHT22;24054;50.128;19.730;2023-04-28T02:27:17;20.70;63.00
38263;DHT22;24054;50.128;19.730;2023-04-28T02:32:10;20.70;63.10
38263;DHT22;24054;50.128;19.730;2023-04-28T02:34:39;20.70;63.00
38263;DHT22;24054;50.128;19.730;2023-04-28T02:37:05;20.70;62.70
38263;DHT22;24054;50.128;19.730;2023-04-28T02:49:23;20.70;63.20
38263;DHT22;24054;50.128;19.730;2023-04-28T02:51:51;20.70;63.40
38263;DHT22;24054;50.128;19.730;2023-04-28T02:54:18;20.70;60.20
38263;DHT22;24054;50.128;19.730;2023-04-28T02:56:51;20.70;63.20
38263;DHT22;24054;50.128;19.730;2023-04-28T03:01:45;20.60;63.20
38263;DHT22;24054;50.128;19.730;2023-04-28T03:11:35;20.60;63.10
38263;DHT22;24054;50.128;19.730;2023-04-28T03:14:01;20.60;63.10
38263;DHT22;24054;50.128;19.730;2023-04-28T03:16:28;20.60;62.90
38263;DHT22;24054;50.128;19.730;2023-04-28T03:18:55;20.60;63.00
38263;DHT22;24054;50.128;19.730;2023-04-28T03:23:50;20.60;63.20
38263;DHT22;24054;50.128;19.730;2023-04-28T03:26:17;20.60;63.10
38263;DHT22;24054;50.128;19.730;2023-04-28T03:28:45;20.50;63.10
38263;DHT22;24054;50.128;19.730;2023-04-28T03:31:12;20.60;63.30
38263;DHT22;24054;50.128;19.730;2023-04-28T03:33:39;20.60;62.80
38263;DHT22;24054;50.128;19.730;2023-04-28T03:36:06;20.50;63.20
38263;DHT22;24054;50.128;19.730;2023-04-28T03:38:33;20.60;63.20
38263;DHT22;24054;50.128;19.730;2023-04-28T03:43:27;20.50;62.90
38263;DHT22;24054;50.128;19.730;2023-04-28T03:45:55;20.50;63.40
38263;DHT22;24054;50.128;19.730;2023-04-28T03:50:49;20.60;63.40
38263;DHT22;24054;50.128;19.730;2023-04-28T03:53:16;20.50;63.00
38263;DHT22;24054;50.128;19.730;2023-04-28T04:00:36;20.50;62.90
38263;DHT22;24054;50.128;19.730;2023-04-28T04:05:32;20.50;62.60
38263;DHT22;24054;50.128;19.730;2023-04-28T04:07:58;20.50;62.30
38263;DHT22;24054;50.128;19.730;2023-04-28T04:10:27;20.50;62.50
38263;DHT22;24054;50.128;19.730;2023-04-28T04:12:54;20.50;62.40
38263;DHT22;24054;50.128;19.730;2023-04-28T04:15:20;20.40;59.20
38263;DHT22;24054;50.128;19.730;2023-04-28T04:17:47;20.40;62.40
38263;DHT22;24054;50.128;19.730;2023-04-28T04:20:14;20.40;59.30
38263;DHT22;24054;50.128;19.730;2023-04-28T04:22:42;20.40;62.40
38263;DHT22;24054;50.128;19.730;2023-04-28T04:25:09;20.50;62.20
38263;DHT22;24054;50.128;19.730;2023-04-28T04:27:35;20.40;62.40
38263;DHT22;24054;50.128;19.730;2023-04-28T04:37:23;20.50;61.70
38263;DHT22;24054;50.128;19.730;2023-04-28T04:39:51;20.40;60.40
38263;DHT22;24054;50.128;19.730;2023-04-28T04:47:12;20.40;60.20
38263;DHT22;24054;50.128;19.730;2023-04-28T04:49:39;20.40;60.10
38263;DHT22;24054;50.128;19.730;2023-04-28T04:52:06;20.40;59.60
38263;DHT22;24054;50.128;19.730;2023-04-28T04:54:32;20.30;59.70
38263;DHT22;24054;50.128;19.730;2023-04-28T04:57:00;20.30;60.40
38263;DHT22;24054;50.128;19.730;2023-04-28T04:59:27;20.40;59.80
38263;DHT22;24054;50.128;19.730;2023-04-28T05:01:54;20.30;48.30
38263;DHT22;24054;50.128;19.730;2023-04-28T05:04:21;20.30;48.50
38263;DHT22;24054;50.128;19.730;2023-04-28T05:06:48;20.30;48.50
38263;DHT22;24054;50.128;19.730;2023-04-28T05:09:14;20.30;49.00
38263;DHT22;24054;50.128;19.730;2023-04-28T05:11:41;20.10;49.20
38263;DHT22;24054;50.128;19.730;2023-04-28T05:16:36;20.20;51.40
38263;DHT22;24054;50.128;19.730;2023-04-28T05:19:04;20.30;58.00
38263;DHT22;24054;50.128;19.730;2023-04-28T05:21:31;20.30;58.70
38263;DHT22;24054;50.128;19.730;2023-04-28T05:23:58;20.40;58.70
38263;DHT22;24054;50.128;19.730;2023-04-28T05:26:25;20.40;58.80
38263;DHT22;24054;50.128;19.730;2023-04-28T05:28:51;20.40;53.30
38263;DHT22;24054;50.128;19.730;2023-04-28T05:33:47;20.40;60.00
38263;DHT22;24054;50.128;19.730;2023-04-28T05:36:13;20.50;59.90
38263;DHT22;24054;50.128;19.730;2023-04-28T05:38:41;20.60;60.10
38263;DHT22;24054;50.128;19.730;2023-04-28T05:41:08;20.60;59.70
38263;DHT22;24054;50.128;19.730;2023-04-28T05:43:35;20.70;60.10
38263;DHT22;24054;50.128;19.730;2023-04-28T05:46:01;20.60;60.90
38263;DHT22;24054;50.128;19.730;2023-04-28T05:48:28;20.60;61.30
38263;DHT22;24054;50.128;19.730;2023-04-28T05:50:56;20.70;49.50
38263;DHT22;24054;50.128;19.730;2023-04-28T05:55:50;20.70;61.50
38263;DHT22;24054;50.128;19.730;2023-04-28T06:00:44;20.80;51.10
38263;DHT22;24054;50.128;19.730;2023-04-28T06:03:11;20.70;51.50
38263;DHT22;24054;50.128;19.730;2023-04-28T06:05:39;20.80;53.50
38263;DHT22;24054;50.128;19.730;2023-04-28T06:08:08;20.80;61.10
38263;DHT22;24054;50.128;19.730;2023-04-28T06:10:34;20.80;61.20
38263;DHT22;24054;50.128;19.730;2023-04-28T06:13:01;20.90;60.90
38263;DHT22;24054;50.128;19.730;2023-04-28T06:15:29;20.90;61.00
38263;DHT22;24054;50.128;19.730;2023-04-28T06:17:56;20.90;61.30
38263;DHT22;24054;50.128;19.730;2023-04-28T06:20:24;20.90;61.10
38263;DHT22;24054;50.128;19.730;2023-04-28T06:22:52;21.00;61.90
38263;DHT22;24054;50.128;19.730;2023-04-28T06:25:20;21.00;61.00
38263;DHT22;24054;50.128;19.730;2023-04-28T06:27:47;21.00;61.20
38263;DHT22;24054;50.128;19.730;2023-04-28T06:32:40;21.10;61.30
38263;DHT22;24054;50.128;19.730;2023-04-28T06:35:07;21.10;61.60
38263;DHT22;24054;50.128;19.730;2023-04-28T06:37:34;21.10;60.70
38263;DHT22;24054;50.128;19.730;2023-04-28T06:40:01;21.10;49.80
38263;DHT22;24054;50.128;19.730;2023-04-28T06:42:29;21.10;49.80
38263;DHT22;24054;50.128;19.730;2023-04-28T06:47:23;21.20;54.80
38263;DHT22;24054;50.128;19.730;2023-04-28T06:49:50;21.20;61.70
38263;DHT22;24054;50.128;19.730;2023-04-28T06:52:18;21.20;50.60
38263;DHT22;24054;50.128;19.730;2023-04-28T06:57:12;21.30;59.80
38263;DHT22;24054;50.128;19.730;2023-04-28T06:59:41;21.00;59.10
38263;DHT22;24054;50.128;19.730;2023-04-28T07:02:08;21.40;60.80
38263;DHT22;24054;50.128;19.730;2023-04-28T07:04:36;21.40;61.40
38263;DHT22;24054;50.128;19.730;2023-04-28T07:07:03;21.40;61.60
38263;DHT22;24054;50.128;19.730;2023-04-28T07:12:00;21.50;61.30
38263;DHT22;24054;50.128;19.730;2023-04-28T07:14:26;21.50;53.80
38263;DHT22;24054;50.128;19.730;2023-04-28T07:16:55;21.40;61.60
38263;DHT22;24054;50.128;19.730;2023-04-28T07:19:21;21.60;61.60
38263;DHT22;24054;50.128;19.730;2023-04-28T07:21:48;21.60;61.10
38263;DHT22;24054;50.128;19.730;2023-04-28T07:24:15;21.60;61.60
38263;DHT22;24054;50.128;19.730;2023-04-28T07:26:42;21.60;55.10
38263;DHT22;24054;50.128;19.730;2023-04-28T07:29:08;21.60;55.40
38263;DHT22;24054;50.128;19.730;2023-04-28T07:31:37;21.60;55.90
38263;DHT22;24054;50.128;19.730;2023-04-28T07:34:06;21.70;56.20
38263;DHT22;24054;50.128;19.730;2023-04-28T07:36:33;21.70;58.00
38263;DHT22;24054;50.128;19.730;2023-04-28T07:39:00;21.70;57.20
38263;DHT22;24054;50.128;19.730;2023-04-28T07:41:27;21.70;61.70
38263;DHT22;24054;50.128;19.730;2023-04-28T07:43:54;21.80;62.70
38263;DHT22;24054;50.128;19.730;2023-04-28T07:48:48;21.90;57.30
38263;DHT22;24054;50.128;19.730;2023-04-28T07:51:16;21.80;62.50
38263;DHT22;24054;50.128;19.730;2023-04-28T07:53:43;21.90;63.00
38263;DHT22;24054;50.128;19.730;2023-04-28T07:56:12;21.90;63.00
38263;DHT22;24054;50.128;19.730;2023-04-28T07:58:39;21.90;62.70
38263;DHT22;24054;50.128;19.730;2023-04-28T08:01:06;21.90;63.30
38263;DHT22;24054;50.128;19.730;2023-04-28T08:06:00;22.00;57.10
38263;DHT22;24054;50.128;19.730;2023-04-28T08:08:28;22.00;61.00
38263;DHT22;24054;50.128;19.730;2023-04-28T08:10:55;22.00;61.40
38263;DHT22;24054;50.128;19.730;2023-04-28T08:13:23;21.90;60.40
38263;DHT22;24054;50.128;19.730;2023-04-28T08:15:50;22.00;56.20
38263;DHT22;24054;50.128;19.730;2023-04-28T08:18:16;22.10;55.90
38263;DHT22;24054;50.128;19.730;2023-04-28T08:20:43;22.00;55.90
38263;DHT22;24054;50.128;19.730;2023-04-28T08:23:10;22.00;58.80
38263;DHT22;24054;50.128;19.730;2023-04-28T08:25:40;22.10;59.50
38263;DHT22;24054;50.128;19.730;2023-04-28T08:28:07;22.10;58.90
38263;DHT22;24054;50.128;19.730;2023-04-28T08:30:34;22.10;59.20
38263;DHT22;24054;50.128;19.730;2023-04-28T08:33:03;22.20;54.90
38263;DHT22;24054;50.128;19.730;2023-04-28T08:35:29;22.10;59.10
38263;DHT22;24054;50.128;19.730;2023-04-28T08:37:56;22.20;59.10
38263;DHT22;24054;50.128;19.730;2023-04-28T08:40:23;22.20;58.60
38263;DHT22;24054;50.128;19.730;2023-04-28T08:42:53;22.30;58.80
38263;DHT22;24054;50.128;19.730;2023-04-28T08:45:20;22.30;58.60
